MCF1TR LZIB-EPWA
Flight info
| Callsign | MCF1TR |
|---|---|
| Flight time | 0h 47m |
| Altitude | 23000 |
| Route | NIT M985 NIDOK/N0457F350 DCT MEBAN DCT ORTEB/N0457F360 DCT KONZI DCT LOGDA |
| Aircraft | A320/M-SDE3FGHIRWY/LB1 |
Departure
| Time | 2026-05-06 20:03 |
|---|---|
| Airport | M. R. Štefánik Airport (LZIB) |
Arrival
| Time | 2026-05-06 20:51 |
|---|---|
| Airport | Warsaw Chopin Airport (EPWA) |
| Time | Latitude | Longitude | Altitude | Speed | Heading |
|---|---|---|---|---|---|
| 2026-05-06 19:34 | 48.16947 | 17.20129 | 420 ft | 0 kts | 314° |
| 2026-05-06 19:55 | 48.16940 | 17.20140 | 421 ft | 2 kts | 314° |
| 2026-05-06 19:56 | 48.16927 | 17.20156 | 425 ft | 2 kts | 349° |
| 2026-05-06 19:56 | 48.16910 | 17.20161 | 420 ft | 2 kts | 18° |
| 2026-05-06 19:56 | 48.16904 | 17.20158 | 421 ft | 0 kts | 37° |
| 2026-05-06 19:59 | 48.16917 | 17.20188 | 422 ft | 7 kts | 66° |
| 2026-05-06 19:59 | 48.16960 | 17.20274 | 425 ft | 10 kts | 45° |
| 2026-05-06 19:59 | 48.17008 | 17.20345 | 423 ft | 9 kts | 44° |
| 2026-05-06 19:59 | 48.17066 | 17.20429 | 424 ft | 14 kts | 44° |
| 2026-05-06 20:00 | 48.17112 | 17.20495 | 431 ft | 13 kts | 44° |
| 2026-05-06 20:00 | 48.17167 | 17.20567 | 424 ft | 9 kts | 27° |
| 2026-05-06 20:00 | 48.17250 | 17.20520 | 424 ft | 16 kts | 314° |
| 2026-05-06 20:00 | 48.17323 | 17.20410 | 425 ft | 14 kts | 315° |
| 2026-05-06 20:01 | 48.17380 | 17.20328 | 426 ft | 8 kts | 320° |
| 2026-05-06 20:01 | 48.17432 | 17.20304 | 427 ft | 8 kts | 356° |
| 2026-05-06 20:01 | 48.17488 | 17.20320 | 430 ft | 9 kts | 29° |
| 2026-05-06 20:01 | 48.17542 | 17.20395 | 422 ft | 8 kts | 47° |
| 2026-05-06 20:02 | 48.17538 | 17.20451 | 430 ft | 5 kts | 125° |
| 2026-05-06 20:02 | 48.17533 | 17.20458 | 418 ft | 0 kts | 137° |
| 2026-05-06 20:02 | 48.17526 | 17.20468 | 421 ft | 8 kts | 136° |
| 2026-05-06 20:03 | 48.17328 | 17.20772 | 425 ft | 77 kts | 134° |
| 2026-05-06 20:03 | 48.16808 | 17.21578 | 418 ft | 135 kts | 134° |
| 2026-05-06 20:03 | 48.16082 | 17.22707 | 789 ft | 152 kts | 138° |
| 2026-05-06 20:03 | 48.15353 | 17.23839 | 1549 ft | 150 kts | 143° |
| 2026-05-06 20:04 | 48.14623 | 17.24966 | 2274 ft | 153 kts | 146° |
| 2026-05-06 20:04 | 48.13836 | 17.26160 | 2664 ft | 172 kts | 145° |
| 2026-05-06 20:04 | 48.12934 | 17.27527 | 2992 ft | 195 kts | 144° |
| 2026-05-06 20:04 | 48.12002 | 17.29160 | 3278 ft | 229 kts | 125° |
| 2026-05-06 20:05 | 48.11712 | 17.31763 | 3677 ft | 273 kts | 89° |
| 2026-05-06 20:05 | 48.12175 | 17.34612 | 4318 ft | 294 kts | 74° |
| 2026-05-06 20:05 | 48.12969 | 17.37471 | 5194 ft | 301 kts | 68° |
| 2026-05-06 20:05 | 48.13882 | 17.40368 | 6115 ft | 306 kts | 67° |
| 2026-05-06 20:06 | 48.14792 | 17.43268 | 7007 ft | 308 kts | 68° |
| 2026-05-06 20:06 | 48.15666 | 17.46205 | 7922 ft | 311 kts | 70° |
| 2026-05-06 20:06 | 48.16506 | 17.49209 | 8797 ft | 314 kts | 71° |
| 2026-05-06 20:06 | 48.17321 | 17.52262 | 9680 ft | 317 kts | 72° |
| 2026-05-06 20:07 | 48.18120 | 17.55373 | 10425 ft | 325 kts | 73° |
| 2026-05-06 20:07 | 48.18898 | 17.58684 | 10722 ft | 348 kts | 75° |
| 2026-05-06 20:07 | 48.19666 | 17.62189 | 10953 ft | 371 kts | 75° |
| 2026-05-06 20:07 | 48.20490 | 17.66054 | 11136 ft | 395 kts | 75° |
| 2026-05-06 20:08 | 48.21348 | 17.70080 | 11321 ft | 415 kts | 75° |
| 2026-05-06 20:08 | 48.22249 | 17.74252 | 11854 ft | 423 kts | 75° |
| 2026-05-06 20:08 | 48.23176 | 17.78462 | 12498 ft | 428 kts | 74° |
| 2026-05-06 20:08 | 48.24125 | 17.82717 | 13168 ft | 431 kts | 74° |
| 2026-05-06 20:09 | 48.25081 | 17.86993 | 13787 ft | 434 kts | 74° |
| 2026-05-06 20:09 | 48.26024 | 17.91222 | 14034 ft | 417 kts | 74° |
| 2026-05-06 20:09 | 48.26943 | 17.95346 | 14168 ft | 418 kts | 75° |
| 2026-05-06 20:09 | 48.27957 | 17.99525 | 14355 ft | 435 kts | 69° |
| 2026-05-06 20:10 | 48.29345 | 18.03523 | 14553 ft | 432 kts | 60° |
| 2026-05-06 20:10 | 48.31108 | 18.07176 | 14838 ft | 444 kts | 51° |
| 2026-05-06 20:10 | 48.33312 | 18.10563 | 15327 ft | 451 kts | 42° |
| 2026-05-06 20:10 | 48.35667 | 18.13625 | 15866 ft | 455 kts | 41° |
| 2026-05-06 20:11 | 48.38092 | 18.16789 | 16451 ft | 458 kts | 41° |
| 2026-05-06 20:11 | 48.40506 | 18.19952 | 16986 ft | 461 kts | 41° |
| 2026-05-06 20:11 | 48.42929 | 18.23135 | 17551 ft | 464 kts | 41° |
| 2026-05-06 20:11 | 48.45344 | 18.26306 | 18087 ft | 468 kts | 41° |
| 2026-05-06 20:12 | 48.47804 | 18.29534 | 18549 ft | 471 kts | 41° |
| 2026-05-06 20:12 | 48.50281 | 18.32783 | 19005 ft | 473 kts | 41° |
| 2026-05-06 20:12 | 48.52773 | 18.36058 | 19406 ft | 477 kts | 41° |
| 2026-05-06 20:12 | 48.55279 | 18.39358 | 19835 ft | 480 kts | 41° |
| 2026-05-06 20:13 | 48.57797 | 18.42675 | 20276 ft | 482 kts | 41° |
| 2026-05-06 20:13 | 48.60336 | 18.46023 | 20699 ft | 484 kts | 41° |
| 2026-05-06 20:13 | 48.62911 | 18.49421 | 21136 ft | 487 kts | 41° |
| 2026-05-06 20:13 | 48.65465 | 18.52801 | 21560 ft | 489 kts | 41° |
| 2026-05-06 20:14 | 48.68027 | 18.56205 | 21959 ft | 492 kts | 41° |
| 2026-05-06 20:14 | 48.70602 | 18.59633 | 22386 ft | 493 kts | 41° |
| 2026-05-06 20:14 | 48.73138 | 18.63021 | 22871 ft | 492 kts | 41° |
| 2026-05-06 20:14 | 48.75702 | 18.66459 | 23281 ft | 494 kts | 41° |
| 2026-05-06 20:15 | 48.78283 | 18.69918 | 23637 ft | 496 kts | 41° |
| 2026-05-06 20:15 | 48.80904 | 18.73430 | 23942 ft | 498 kts | 41° |
| 2026-05-06 20:15 | 48.83499 | 18.76917 | 24371 ft | 497 kts | 41° |
| 2026-05-06 20:15 | 48.86082 | 18.80392 | 24790 ft | 496 kts | 41° |
| 2026-05-06 20:16 | 48.88627 | 18.83829 | 25178 ft | 497 kts | 41° |
| 2026-05-06 20:16 | 48.91198 | 18.87363 | 25553 ft | 498 kts | 41° |
| 2026-05-06 20:16 | 48.93751 | 18.90932 | 25974 ft | 498 kts | 42° |
| 2026-05-06 20:16 | 48.96320 | 18.94565 | 26415 ft | 498 kts | 42° |
| 2026-05-06 20:17 | 48.98846 | 18.98153 | 26874 ft | 497 kts | 42° |
| 2026-05-06 20:17 | 49.01376 | 19.01745 | 27318 ft | 497 kts | 42° |
| 2026-05-06 20:17 | 49.03908 | 19.05337 | 27748 ft | 497 kts | 41° |
| 2026-05-06 20:17 | 49.06440 | 19.08916 | 28203 ft | 497 kts | 41° |
| 2026-05-06 20:18 | 49.08942 | 19.12445 | 28649 ft | 496 kts | 41° |
| 2026-05-06 20:18 | 49.11477 | 19.16021 | 29143 ft | 495 kts | 41° |
| 2026-05-06 20:18 | 49.14001 | 19.19584 | 29575 ft | 495 kts | 41° |
| 2026-05-06 20:18 | 49.16527 | 19.23159 | 29993 ft | 495 kts | 41° |
| 2026-05-06 20:19 | 49.19052 | 19.26744 | 30377 ft | 494 kts | 41° |
| 2026-05-06 20:19 | 49.21567 | 19.30322 | 30773 ft | 494 kts | 41° |
| 2026-05-06 20:19 | 49.24074 | 19.33896 | 31190 ft | 493 kts | 41° |
| 2026-05-06 20:19 | 49.26582 | 19.37478 | 31545 ft | 493 kts | 41° |
| 2026-05-06 20:20 | 49.29088 | 19.41065 | 31881 ft | 494 kts | 41° |
| 2026-05-06 20:20 | 49.31597 | 19.44664 | 32254 ft | 493 kts | 41° |
| 2026-05-06 20:20 | 49.34101 | 19.48257 | 32633 ft | 492 kts | 41° |
| 2026-05-06 20:20 | 49.36597 | 19.51835 | 33007 ft | 491 kts | 41° |
| 2026-05-06 20:21 | 49.39089 | 19.55412 | 33447 ft | 489 kts | 41° |
| 2026-05-06 20:21 | 49.41568 | 19.58980 | 33855 ft | 488 kts | 41° |
| 2026-05-06 20:21 | 49.44039 | 19.62544 | 34200 ft | 487 kts | 41° |
| 2026-05-06 20:21 | 49.46506 | 19.66105 | 34461 ft | 487 kts | 41° |
| 2026-05-06 20:22 | 49.48987 | 19.69634 | 34703 ft | 486 kts | 41° |
| 2026-05-06 20:22 | 49.51485 | 19.73132 | 34958 ft | 485 kts | 40° |
| 2026-05-06 20:22 | 49.53990 | 19.76613 | 35211 ft | 485 kts | 40° |
| 2026-05-06 20:22 | 49.56492 | 19.80090 | 35457 ft | 485 kts | 40° |
| 2026-05-06 20:23 | 49.58990 | 19.83582 | 35711 ft | 484 kts | 40° |
| 2026-05-06 20:23 | 49.61481 | 19.87086 | 35841 ft | 486 kts | 40° |
| 2026-05-06 20:23 | 49.66474 | 19.94156 | 35851 ft | 488 kts | 40° |
| 2026-05-06 20:24 | 49.71487 | 20.01290 | 35843 ft | 489 kts | 40° |
| 2026-05-06 20:24 | 49.76475 | 20.08398 | 35843 ft | 489 kts | 40° |
| 2026-05-06 20:25 | 49.81484 | 20.15546 | 35855 ft | 490 kts | 40° |
| 2026-05-06 20:25 | 49.86492 | 20.22703 | 35839 ft | 490 kts | 40° |
| 2026-05-06 20:26 | 49.91493 | 20.29890 | 35837 ft | 490 kts | 41° |
| 2026-05-06 20:26 | 49.96496 | 20.37092 | 35832 ft | 490 kts | 41° |
| 2026-05-06 20:27 | 50.01489 | 20.44289 | 35833 ft | 491 kts | 40° |
| 2026-05-06 20:27 | 50.06620 | 20.51295 | 35808 ft | 489 kts | 32° |
| 2026-05-06 20:28 | 50.12610 | 20.56054 | 35817 ft | 479 kts | 14° |
| 2026-05-06 20:28 | 50.19099 | 20.57901 | 35552 ft | 470 kts | 359° |
| 2026-05-06 20:29 | 50.22334 | 20.58229 | 35222 ft | 461 kts | 358° |
| 2026-05-06 20:29 | 50.25509 | 20.58552 | 34784 ft | 455 kts | 358° |
| 2026-05-06 20:29 | 50.28650 | 20.58873 | 34316 ft | 451 kts | 358° |
| 2026-05-06 20:29 | 50.31761 | 20.59193 | 33856 ft | 446 kts | 358° |
| 2026-05-06 20:30 | 50.34849 | 20.59513 | 33311 ft | 442 kts | 358° |
| 2026-05-06 20:30 | 50.41039 | 20.60156 | 31727 ft | 447 kts | 359° |
| 2026-05-06 20:30 | 50.44135 | 20.60477 | 31124 ft | 446 kts | 359° |
| 2026-05-06 20:31 | 50.47213 | 20.60797 | 30572 ft | 444 kts | 359° |
| 2026-05-06 20:31 | 50.50296 | 20.61121 | 30009 ft | 441 kts | 359° |
| 2026-05-06 20:31 | 50.53354 | 20.61444 | 29403 ft | 439 kts | 360° |
| 2026-05-06 20:31 | 50.56391 | 20.61764 | 28821 ft | 436 kts | 360° |
| 2026-05-06 20:32 | 50.59409 | 20.62081 | 28259 ft | 433 kts | 360° |
| 2026-05-06 20:32 | 50.62398 | 20.62391 | 27705 ft | 429 kts | 360° |
| 2026-05-06 20:32 | 50.65364 | 20.62699 | 27163 ft | 426 kts | 360° |
| 2026-05-06 20:32 | 50.68314 | 20.63008 | 26639 ft | 423 kts | 0° |
| 2026-05-06 20:33 | 50.71238 | 20.63316 | 26083 ft | 420 kts | 0° |
| 2026-05-06 20:33 | 50.74143 | 20.63620 | 25563 ft | 417 kts | 0° |
| 2026-05-06 20:33 | 50.77025 | 20.63921 | 25062 ft | 414 kts | 0° |
| 2026-05-06 20:33 | 50.79900 | 20.64224 | 24571 ft | 412 kts | 0° |
| 2026-05-06 20:34 | 50.82753 | 20.64525 | 24093 ft | 409 kts | 0° |
| 2026-05-06 20:34 | 50.85571 | 20.64821 | 23608 ft | 406 kts | 0° |
| 2026-05-06 20:34 | 50.88389 | 20.65114 | 23098 ft | 403 kts | 0° |
| 2026-05-06 20:34 | 50.91176 | 20.65407 | 22583 ft | 401 kts | 0° |
| 2026-05-06 20:35 | 50.93955 | 20.65704 | 22069 ft | 399 kts | 0° |
| 2026-05-06 20:35 | 50.96721 | 20.65995 | 21594 ft | 397 kts | 0° |
| 2026-05-06 20:35 | 50.99468 | 20.66285 | 21110 ft | 394 kts | 0° |
| 2026-05-06 20:35 | 51.02192 | 20.66571 | 20670 ft | 391 kts | 0° |
| 2026-05-06 20:36 | 51.04901 | 20.66861 | 20220 ft | 388 kts | 0° |
| 2026-05-06 20:36 | 51.07589 | 20.67153 | 19794 ft | 386 kts | 0° |
| 2026-05-06 20:36 | 51.10253 | 20.67442 | 19372 ft | 383 kts | 0° |
| 2026-05-06 20:36 | 51.12905 | 20.67728 | 18959 ft | 381 kts | 0° |
| 2026-05-06 20:37 | 51.15544 | 20.68010 | 18543 ft | 378 kts | 0° |
| 2026-05-06 20:37 | 51.18159 | 20.68285 | 18137 ft | 376 kts | 360° |
| 2026-05-06 20:37 | 51.20759 | 20.68562 | 17682 ft | 374 kts | 0° |
| 2026-05-06 20:37 | 51.23342 | 20.68840 | 17228 ft | 372 kts | 0° |
| 2026-05-06 20:38 | 51.25927 | 20.69123 | 16780 ft | 370 kts | 1° |
| 2026-05-06 20:38 | 51.28460 | 20.69814 | 16344 ft | 371 kts | 13° |
| 2026-05-06 20:38 | 51.30876 | 20.71253 | 15932 ft | 371 kts | 25° |
| 2026-05-06 20:38 | 51.33179 | 20.73070 | 15524 ft | 369 kts | 25° |
| 2026-05-06 20:39 | 51.35478 | 20.74872 | 15130 ft | 367 kts | 25° |
| 2026-05-06 20:39 | 51.37766 | 20.76659 | 14746 ft | 365 kts | 25° |
| 2026-05-06 20:39 | 51.40040 | 20.78435 | 14370 ft | 363 kts | 25° |
| 2026-05-06 20:39 | 51.42304 | 20.80202 | 13983 ft | 361 kts | 25° |
| 2026-05-06 20:40 | 51.44561 | 20.81960 | 13608 ft | 359 kts | 25° |
| 2026-05-06 20:40 | 51.46798 | 20.83707 | 13200 ft | 357 kts | 26° |
| 2026-05-06 20:40 | 51.48311 | 20.84891 | 12920 ft | 356 kts | 26° |
| 2026-05-06 20:40 | 51.50522 | 20.86625 | 12521 ft | 354 kts | 26° |
| 2026-05-06 20:41 | 51.52727 | 20.88362 | 12130 ft | 352 kts | 26° |
| 2026-05-06 20:41 | 51.54917 | 20.90089 | 11740 ft | 349 kts | 26° |
| 2026-05-06 20:41 | 51.57085 | 20.91796 | 11341 ft | 347 kts | 26° |
| 2026-05-06 20:41 | 51.59256 | 20.93507 | 10953 ft | 345 kts | 26° |
| 2026-05-06 20:42 | 51.61402 | 20.95201 | 10574 ft | 343 kts | 26° |
| 2026-05-06 20:42 | 51.63539 | 20.96889 | 10196 ft | 341 kts | 26° |
| 2026-05-06 20:42 | 51.65662 | 20.98565 | 9828 ft | 338 kts | 26° |
| 2026-05-06 20:42 | 51.67743 | 21.00210 | 9695 ft | 327 kts | 26° |
| 2026-05-06 20:43 | 51.69752 | 21.01799 | 9536 ft | 318 kts | 26° |
| 2026-05-06 20:43 | 51.71726 | 21.03364 | 9224 ft | 314 kts | 26° |
| 2026-05-06 20:43 | 51.73678 | 21.04912 | 8870 ft | 312 kts | 25° |
| 2026-05-06 20:43 | 51.75617 | 21.06454 | 8505 ft | 310 kts | 26° |
| 2026-05-06 20:44 | 51.77537 | 21.07984 | 8102 ft | 306 kts | 26° |
| 2026-05-06 20:44 | 51.79442 | 21.09500 | 7469 ft | 303 kts | 25° |
| 2026-05-06 20:44 | 51.81329 | 21.11004 | 6944 ft | 303 kts | 25° |
| 2026-05-06 20:44 | 51.83209 | 21.12508 | 6614 ft | 299 kts | 26° |
| 2026-05-06 20:45 | 51.85064 | 21.13992 | 6277 ft | 296 kts | 26° |
| 2026-05-06 20:45 | 51.86904 | 21.15464 | 5900 ft | 294 kts | 26° |
| 2026-05-06 20:45 | 51.88727 | 21.16908 | 5627 ft | 287 kts | 23° |
| 2026-05-06 20:45 | 51.90600 | 21.17696 | 5517 ft | 271 kts | 1° |
| 2026-05-06 20:46 | 51.92413 | 21.17436 | 5322 ft | 258 kts | 341° |
| 2026-05-06 20:46 | 51.94033 | 21.16302 | 5014 ft | 250 kts | 328° |
| 2026-05-06 20:46 | 51.95540 | 21.14996 | 4713 ft | 240 kts | 328° |
| 2026-05-06 20:46 | 51.96989 | 21.13740 | 4399 ft | 233 kts | 328° |
| 2026-05-06 20:47 | 51.98392 | 21.12525 | 4088 ft | 225 kts | 328° |
| 2026-05-06 20:47 | 51.99756 | 21.11345 | 3797 ft | 219 kts | 328° |
| 2026-05-06 20:47 | 52.01077 | 21.10200 | 3513 ft | 213 kts | 328° |
| 2026-05-06 20:47 | 52.02366 | 21.09082 | 3238 ft | 207 kts | 328° |
| 2026-05-06 20:48 | 52.03605 | 21.08009 | 2999 ft | 196 kts | 328° |
| 2026-05-06 20:48 | 52.04775 | 21.06993 | 2729 ft | 186 kts | 328° |
| 2026-05-06 20:48 | 52.05880 | 21.06034 | 2485 ft | 178 kts | 328° |
| 2026-05-06 20:48 | 52.06956 | 21.05098 | 2264 ft | 174 kts | 328° |
| 2026-05-06 20:49 | 52.07991 | 21.04198 | 2056 ft | 164 kts | 328° |
| 2026-05-06 20:49 | 52.08982 | 21.03336 | 1826 ft | 156 kts | 327° |
| 2026-05-06 20:49 | 52.09924 | 21.02516 | 1625 ft | 151 kts | 327° |
| 2026-05-06 20:49 | 52.10842 | 21.01716 | 1426 ft | 149 kts | 328° |
| 2026-05-06 20:50 | 52.11753 | 21.00922 | 1222 ft | 147 kts | 329° |
| 2026-05-06 20:50 | 52.12656 | 21.00133 | 1029 ft | 149 kts | 331° |
| 2026-05-06 20:50 | 52.13569 | 20.99337 | 831 ft | 149 kts | 332° |
| 2026-05-06 20:50 | 52.14487 | 20.98536 | 628 ft | 150 kts | 332° |
| 2026-05-06 20:51 | 52.15405 | 20.97732 | 410 ft | 150 kts | 333° |
| 2026-05-06 20:51 | 52.16275 | 20.96972 | 335 ft | 125 kts | 332° |
| 2026-05-06 20:51 | 52.16824 | 20.96507 | 334 ft | 40 kts | 340° |
| 2026-05-06 20:51 | 52.16965 | 20.96511 | 334 ft | 18 kts | 1° |
| 2026-05-06 20:52 | 52.17077 | 20.96540 | 338 ft | 15 kts | 40° |
| 2026-05-06 20:52 | 52.17131 | 20.96690 | 335 ft | 16 kts | 62° |
| 2026-05-06 20:52 | 52.17167 | 20.96817 | 335 ft | 8 kts | 71° |
| 2026-05-06 20:52 | 52.17188 | 20.96888 | 335 ft | 6 kts | 62° |
| 2026-05-06 20:53 | 52.17205 | 20.96940 | 336 ft | 4 kts | 63° |
| 2026-05-06 20:53 | 52.17214 | 20.96968 | 335 ft | 0 kts | 62° |
| 2026-05-06 20:53 | 52.17214 | 20.96969 | 339 ft | 0 kts | 62° |